Time;durP1;ratioP1;P1;durP2;ratioP2;P2;SDS_P1;SDS_P2;PMS_P1;PMS_P2;Temp;Humidity;BMP_temperature;BMP_pressure;BME280_temperature;BME280_humidity;BME280_pressure;Samples;Min_cycle;Max_cycle;Signal;HPM_P1;HPM_P2
2022/03/07 00:01:16;;;;;;;6.40;1.23;;;2.60;99.90;;;;;;4999376;28;20046;-67
2022/03/07 00:03:43;;;;;;;3.83;1.20;;;2.60;99.90;;;;;;4998330;28;20062;-68
2022/03/07 00:06:11;;;;;;;4.85;0.80;;;2.70;99.90;;;;;;4997384;28;20053;-66
2022/03/07 00:08:38;;;;;;;8.00;1.58;;;2.70;99.90;;;;;;4999134;28;20132;-69
2022/03/07 00:11:06;;;;;;;2.00;0.90;;;2.70;99.90;;;;;;5002367;28;20057;-72
2022/03/07 00:13:34;;;;;;;1.58;0.77;;;2.60;99.90;;;;;;4994556;28;20054;-65
2022/03/07 00:16:02;;;;;;;4.32;1.20;;;2.60;99.90;;;;;;5002445;28;20054;-69
2022/03/07 00:18:30;;;;;;;3.33;1.17;;;2.70;99.90;;;;;;4995863;28;20129;-65
2022/03/07 00:20:57;;;;;;;5.13;1.08;;;2.60;99.90;;;;;;5000681;28;20149;-69
2022/03/07 00:23:24;;;;;;;5.55;0.95;;;2.60;99.90;;;;;;4998542;28;20080;-70
2022/03/07 00:25:51;;;;;;;5.50;1.13;;;2.60;99.90;;;;;;5002142;28;20049;-65
2022/03/07 00:28:18;;;;;;;7.32;1.38;;;2.60;99.90;;;;;;4999954;28;20426;-68
2022/03/07 00:30:45;;;;;;;1.63;0.98;;;2.60;99.90;;;;;;4998345;28;20093;-66
2022/03/07 00:33:16;;;;;;;3.35;0.70;;;2.60;99.90;;;;;;4997695;28;20743;-68
2022/03/07 00:35:44;;;;;;;3.78;1.65;;;2.60;99.90;;;;;;4998562;28;20403;-69
2022/03/07 00:38:11;;;;;;;3.85;0.98;;;2.60;99.90;;;;;;5000796;28;20271;-67
2022/03/07 00:40:38;;;;;;;6.30;2.85;;;2.60;99.90;;;;;;4997719;28;20153;-66
2022/03/07 00:43:10;;;;;;;3.97;1.02;;;2.60;99.90;;;;;;5011042;28;20066;-73
2022/03/07 00:45:39;;;;;;;6.50;1.85;;;2.60;99.90;;;;;;5001371;28;20042;-71
2022/03/07 00:48:09;;;;;;;4.50;1.27;;;2.60;99.90;;;;;;5018387;28;20153;-69
2022/03/07 00:50:42;;;;;;;2.45;0.98;;;2.60;99.90;;;;;;4998178;28;20468;-66
2022/03/07 00:53:15;;;;;;;9.68;1.70;;;2.70;99.90;;;;;;5005093;28;20041;-68
2022/03/07 00:55:43;;;;;;;3.17;0.88;;;2.70;99.90;;;;;;4999377;28;20138;-69
2022/03/07 00:58:13;;;;;;;3.33;1.60;;;2.60;99.90;;;;;;4996779;28;20568;-65
2022/03/07 01:00:41;;;;;;;8.43;1.63;;;2.70;99.90;;;;;;4999948;28;20475;-72
2022/03/07 01:03:09;;;;;;;3.25;1.35;;;2.60;99.90;;;;;;5001662;28;20715;-73
2022/03/07 01:05:37;;;;;;;6.07;1.05;;;2.60;99.90;;;;;;5015118;28;20077;-69
2022/03/07 01:08:05;;;;;;;4.43;1.20;;;2.60;99.90;;;;;;5003239;28;20065;-73
2022/03/07 01:10:34;;;;;;;12.77;2.15;;;2.60;99.90;;;;;;5000675;28;20112;-68
2022/03/07 01:13:01;;;;;;;5.15;0.95;;;2.50;99.90;;;;;;5002808;28;20058;-66
2022/03/07 01:15:28;;;;;;;6.05;1.13;;;2.60;99.90;;;;;;5002740;28;20053;-72
2022/03/07 01:17:59;;;;;;;3.63;1.67;;;2.60;99.90;;;;;;4998582;28;20116;-65
2022/03/07 01:20:27;;;;;;;3.53;1.45;;;2.60;99.90;;;;;;5001919;28;20095;-69
2022/03/07 01:22:54;;;;;;;2.50;2.30;;;2.60;99.90;;;;;;5000075;28;20050;-68
2022/03/07 01:25:21;;;;;;;5.85;1.15;;;2.60;99.90;;;;;;5009841;28;20046;-66
2022/03/07 01:27:48;;;;;;;4.65;1.30;;;2.60;99.90;;;;;;5000082;28;20053;-74
2022/03/07 01:30:14;;;;;;;2.65;1.13;;;2.60;99.90;;;;;;5003736;28;20139;-65
2022/03/07 01:32:41;;;;;;;2.58;0.68;;;2.60;99.90;;;;;;4997924;28;20796;-65
2022/03/07 01:35:08;;;;;;;5.90;1.48;;;2.60;99.90;;;;;;5002682;28;20061;-66
2022/03/07 01:37:36;;;;;;;6.35;1.38;;;2.50;99.90;;;;;;5001948;28;20096;-65
2022/03/07 01:40:04;;;;;;;2.50;0.90;;;2.50;99.90;;;;;;5004485;28;20073;-68
2022/03/07 01:42:31;;;;;;;7.78;1.23;;;2.50;99.90;;;;;;4998272;28;20046;-68
2022/03/07 01:45:18;;;;;;;2.72;1.05;;;2.50;99.90;;;;;;5015245;28;21128;-67
2022/03/07 01:47:45;;;;;;;3.35;1.27;;;2.50;99.90;;;;;;4999015;28;20060;-65
2022/03/07 01:50:15;;;;;;;7.22;1.40;;;2.50;99.90;;;;;;4999839;28;20050;-68
2022/03/07 01:52:47;;;;;;;12.02;2.95;;;2.50;99.90;;;;;;4996810;28;22783;-72
2022/03/07 01:55:15;;;;;;;4.82;1.95;;;2.50;99.90;;;;;;5001588;28;20065;-71
2022/03/07 01:57:49;;;;;;;6.82;1.40;;;2.50;99.90;;;;;;5017611;28;20121;-72
2022/03/07 02:00:19;;;;;;;7.68;1.45;;;2.50;99.90;;;;;;5001012;28;20526;-66
2022/03/07 02:02:46;;;;;;;5.20;1.17;;;2.40;99.90;;;;;;5013387;28;20046;-74
2022/03/07 02:05:17;;;;;;;5.53;1.65;;;2.40;99.90;;;;;;4997123;28;20123;-67
2022/03/07 02:07:50;;;;;;;9.48;3.05;;;2.50;99.90;;;;;;4997764;28;20046;-65
2022/03/07 02:10:17;;;;;;;3.25;1.10;;;2.40;99.90;;;;;;5001022;28;20112;-70
2022/03/07 02:12:44;;;;;;;7.10;2.78;;;2.50;99.90;;;;;;4994843;28;20108;-72
2022/03/07 02:15:11;;;;;;;6.85;1.60;;;2.40;99.90;;;;;;5001322;28;20054;-65
2022/03/07 02:17:44;;;;;;;2.53;1.30;;;2.40;99.90;;;;;;4994528;28;20062;-65
2022/03/07 02:20:13;;;;;;;2.17;0.80;;;2.40;99.90;;;;;;5018785;28;20393;-67
2022/03/07 02:22:40;;;;;;;3.03;1.83;;;2.50;99.90;;;;;;5011087;28;20160;-72
2022/03/07 02:25:09;;;;;;;3.97;1.70;;;2.40;99.90;;;;;;5001894;28;20066;-67
2022/03/07 02:27:38;;;;;;;5.05;1.23;;;2.40;99.90;;;;;;5015271;28;20042;-66
2022/03/07 02:30:06;;;;;;;5.30;2.15;;;2.40;99.90;;;;;;5006566;28;20357;-69
2022/03/07 02:32:37;;;;;;;6.05;1.13;;;2.40;99.90;;;;;;5010243;28;20141;-68
2022/03/07 02:35:05;;;;;;;2.72;1.27;;;2.40;99.90;;;;;;5004109;28;20812;-67
2022/03/07 02:37:33;;;;;;;5.50;1.42;;;2.50;99.90;;;;;;4997569;28;20068;-66
2022/03/07 02:40:03;;;;;;;4.93;0.93;;;2.40;99.90;;;;;;4997277;28;20472;-65
2022/03/07 02:42:40;;;;;;;1.90;1.58;;;2.40;99.90;;;;;;4997117;28;20384;-73
2022/03/07 02:45:08;;;;;;;2.85;1.50;;;2.50;99.90;;;;;;5000196;28;20078;-66
2022/03/07 02:47:34;;;;;;;2.63;1.38;;;2.50;99.90;;;;;;4996182;28;20050;-69
2022/03/07 02:50:03;;;;;;;5.22;1.23;;;2.40;99.90;;;;;;5001615;28;20107;-73
2022/03/07 02:52:30;;;;;;;7.07;1.30;;;2.50;99.90;;;;;;4996140;28;20081;-66
2022/03/07 02:54:57;;;;;;;4.40;1.27;;;2.40;99.90;;;;;;5001100;28;20467;-67
2022/03/07 02:57:24;;;;;;;3.78;0.98;;;2.40;99.90;;;;;;5001611;28;20138;-76
2022/03/07 02:59:54;;;;;;;6.22;1.00;;;2.40;99.90;;;;;;4994911;28;20167;-66
2022/03/07 03:02:21;;;;;;;4.63;1.52;;;2.40;99.90;;;;;;5001452;28;20053;-65
2022/03/07 03:04:48;;;;;;;4.78;1.33;;;2.40;99.90;;;;;;4996189;28;20135;-69
2022/03/07 03:07:15;;;;;;;7.90;1.42;;;2.40;99.90;;;;;;4993876;28;20046;-70
2022/03/07 03:09:44;;;;;;;9.23;1.85;;;2.40;99.90;;;;;;4998885;28;20077;-68
2022/03/07 03:12:11;;;;;;;3.00;1.08;;;2.40;99.90;;;;;;4989938;28;20443;-68
2022/03/07 03:14:39;;;;;;;8.70;1.45;;;2.40;99.90;;;;;;4994667;28;20100;-68
2022/03/07 03:17:06;;;;;;;5.43;2.10;;;2.40;99.90;;;;;;4998017;28;20950;-65
2022/03/07 03:19:33;;;;;;;3.35;1.55;;;2.40;99.90;;;;;;4994463;28;20052;-67
2022/03/07 03:22:00;;;;;;;4.35;1.52;;;2.40;99.90;;;;;;5001321;28;20050;-72
2022/03/07 03:24:27;;;;;;;7.75;1.55;;;2.30;99.90;;;;;;4997313;28;20049;-67
2022/03/07 03:26:54;;;;;;;12.13;2.08;;;2.40;99.90;;;;;;4998542;28;20514;-69
2022/03/07 03:29:22;;;;;;;3.83;0.98;;;2.30;99.90;;;;;;4998797;28;20121;-67
2022/03/07 03:31:49;;;;;;;3.05;1.30;;;2.30;99.90;;;;;;4999192;28;20062;-68
2022/03/07 03:34:16;;;;;;;6.25;2.65;;;2.30;99.90;;;;;;5000835;28;20729;-65
2022/03/07 03:36:43;;;;;;;5.65;1.30;;;2.30;99.90;;;;;;4998806;28;20158;-72
2022/03/07 03:39:10;;;;;;;2.97;1.35;;;2.30;99.90;;;;;;5003958;28;20106;-66
2022/03/07 03:41:37;;;;;;;6.22;1.08;;;2.30;99.90;;;;;;4999425;28;20561;-68
2022/03/07 03:44:04;;;;;;;4.28;1.70;;;2.30;99.90;;;;;;5003841;28;20073;-65
2022/03/07 03:46:31;;;;;;;2.28;1.05;;;2.30;99.90;;;;;;4995269;28;20049;-65
2022/03/07 03:49:00;;;;;;;6.68;1.30;;;2.30;99.90;;;;;;5000101;28;20356;-71
2022/03/07 03:51:27;;;;;;;2.72;1.70;;;2.30;99.90;;;;;;4999051;28;20108;-67
2022/03/07 03:53:54;;;;;;;5.25;2.00;;;2.30;99.90;;;;;;5000986;28;20124;-67
2022/03/07 03:56:21;;;;;;;9.98;1.50;;;2.30;99.90;;;;;;5001056;28;20091;-66
2022/03/07 03:58:47;;;;;;;3.92;1.42;;;2.20;99.90;;;;;;4996378;28;20111;-66
2022/03/07 04:01:14;;;;;;;3.10;1.25;;;2.20;99.90;;;;;;5001520;28;20152;-68
2022/03/07 04:03:41;;;;;;;4.75;1.65;;;2.20;99.90;;;;;;4996863;28;20129;-64
2022/03/07 04:06:08;;;;;;;4.65;1.23;;;2.20;99.90;;;;;;5002307;28;20045;-67
2022/03/07 04:08:38;;;;;;;4.40;1.27;;;2.20;99.90;;;;;;4997948;28;20049;-67
2022/03/07 04:11:05;;;;;;;5.05;1.52;;;2.20;99.90;;;;;;5001786;28;20681;-63
2022/03/07 04:13:32;;;;;;;5.25;1.23;;;2.20;99.90;;;;;;4999796;28;20107;-66
2022/03/07 04:15:59;;;;;;;3.17;0.90;;;2.20;99.90;;;;;;4996320;28;20081;-64
2022/03/07 04:18:26;;;;;;;3.55;1.13;;;2.20;99.90;;;;;;4997199;28;20058;-69
2022/03/07 04:20:53;;;;;;;4.05;1.00;;;2.20;99.90;;;;;;5002424;28;20084;-68
2022/03/07 04:23:21;;;;;;;1.48;0.98;;;2.10;99.90;;;;;;4998278;28;20132;-65
2022/03/07 04:25:48;;;;;;;4.53;1.17;;;2.20;99.90;;;;;;5004444;28;20077;-64
2022/03/07 04:28:15;;;;;;;3.22;1.00;;;2.20;99.90;;;;;;5002873;28;20049;-67
2022/03/07 04:30:42;;;;;;;5.68;1.23;;;2.20;99.90;;;;;;5003438;28;20049;-71
2022/03/07 04:33:11;;;;;;;4.13;1.23;;;2.20;99.90;;;;;;5003025;28;20863;-65
2022/03/07 04:35:38;;;;;;;6.80;0.82;;;2.20;99.90;;;;;;5009227;28;20046;-64
2022/03/07 04:38:05;;;;;;;4.38;0.90;;;2.20;99.90;;;;;;5003820;28;20066;-66
2022/03/07 04:40:32;;;;;;;1.75;0.85;;;2.20;99.90;;;;;;4999940;28;20095;-69
2022/03/07 04:43:01;;;;;;;3.75;1.92;;;2.20;99.90;;;;;;5005548;28;20101;-66
2022/03/07 04:45:28;;;;;;;4.15;1.17;;;2.20;99.90;;;;;;5002377;28;20065;-67
2022/03/07 04:47:55;;;;;;;8.73;3.05;;;2.20;99.90;;;;;;5003661;28;20053;-65
2022/03/07 04:50:22;;;;;;;7.43;1.48;;;2.20;99.90;;;;;;5002818;28;20085;-71
2022/03/07 04:52:49;;;;;;;6.05;2.13;;;2.20;99.90;;;;;;5001295;28;20109;-64
2022/03/07 04:55:16;;;;;;;8.23;1.40;;;2.20;99.90;;;;;;5004294;28;20538;-64
2022/03/07 04:57:45;;;;;;;5.65;1.13;;;2.20;99.90;;;;;;5002748;28;20172;-71
2022/03/07 05:00:14;;;;;;;5.03;1.65;;;2.20;99.90;;;;;;5004864;28;20115;-67
2022/03/07 05:02:40;;;;;;;3.85;1.52;;;2.10;99.90;;;;;;4997818;28;20196;-64
2022/03/07 05:05:09;;;;;;;6.32;1.67;;;2.10;99.90;;;;;;4999527;28;20128;-65
2022/03/07 05:07:36;;;;;;;3.53;1.10;;;2.10;99.90;;;;;;4998645;28;20084;-66
2022/03/07 05:10:04;;;;;;;8.68;1.80;;;2.10;99.90;;;;;;4995643;28;20121;-71
2022/03/07 05:12:31;;;;;;;6.18;1.20;;;2.10;99.90;;;;;;4999692;28;20050;-65
2022/03/07 05:14:58;;;;;;;5.70;1.42;;;2.10;99.90;;;;;;4996914;28;20484;-67
2022/03/07 05:17:25;;;;;;;4.25;1.08;;;2.10;99.90;;;;;;5001361;28;20144;-70
2022/03/07 05:19:52;;;;;;;4.80;1.13;;;2.10;99.90;;;;;;5000735;28;20407;-65
2022/03/07 05:22:19;;;;;;;2.13;0.88;;;2.10;99.90;;;;;;5002347;28;20475;-64
2022/03/07 05:24:46;;;;;;;5.43;1.05;;;2.10;99.90;;;;;;5006183;28;20123;-65
2022/03/07 05:27:13;;;;;;;5.28;1.33;;;2.10;99.90;;;;;;5000593;28;20136;-69
2022/03/07 05:29:40;;;;;;;2.42;1.17;;;2.10;99.90;;;;;;4996521;28;20046;-68
2022/03/07 05:32:07;;;;;;;6.35;0.98;;;2.10;99.90;;;;;;5001941;28;20574;-65
2022/03/07 05:34:34;;;;;;;4.78;1.17;;;2.10;99.90;;;;;;4998063;28;20082;-65
2022/03/07 05:37:01;;;;;;;4.38;1.17;;;2.10;99.90;;;;;;5000464;28;20145;-72
2022/03/07 05:39:28;;;;;;;4.15;0.95;;;2.10;99.90;;;;;;5002162;28;20526;-67
2022/03/07 05:41:54;;;;;;;2.92;1.05;;;2.00;99.90;;;;;;4998738;28;20122;-64
2022/03/07 05:44:21;;;;;;;7.60;1.13;;;2.10;99.90;;;;;;5000740;28;20089;-70
2022/03/07 05:46:48;;;;;;;4.75;1.80;;;2.10;99.90;;;;;;5000763;28;20053;-64
2022/03/07 05:49:15;;;;;;;6.60;1.83;;;2.10;99.90;;;;;;5000522;28;20138;-64
2022/03/07 05:51:44;;;;;;;4.03;1.63;;;2.10;99.90;;;;;;5002442;28;20053;-70
2022/03/07 05:54:11;;;;;;;2.75;1.00;;;2.10;99.90;;;;;;5001283;28;20074;-71
2022/03/07 05:56:38;;;;;;;2.53;1.85;;;2.10;99.90;;;;;;5012377;28;20050;-67
2022/03/07 05:59:05;;;;;;;4.72;1.50;;;2.10;99.90;;;;;;5002087;28;20135;-66
2022/03/07 06:01:32;;;;;;;8.70;1.42;;;2.10;99.90;;;;;;5000747;28;20119;-64
2022/03/07 06:03:59;;;;;;;3.20;1.48;;;2.10;99.90;;;;;;5002829;28;20543;-64
2022/03/07 06:06:26;;;;;;;5.15;1.67;;;2.10;99.90;;;;;;4995256;28;20073;-67
2022/03/07 06:08:52;;;;;;;3.67;2.88;;;2.10;99.90;;;;;;5003463;28;20137;-68
2022/03/07 06:11:20;;;;;;;6.18;1.17;;;2.10;99.90;;;;;;5000958;28;20452;-64
2022/03/07 06:13:46;;;;;;;5.47;1.52;;;2.10;99.90;;;;;;4998059;28;20050;-64
2022/03/07 06:16:13;;;;;;;4.53;0.82;;;2.10;99.90;;;;;;4999711;28;20042;-70
2022/03/07 06:18:40;;;;;;;4.63;1.42;;;2.10;99.90;;;;;;5004326;28;20207;-65
2022/03/07 06:21:08;;;;;;;4.78;1.92;;;2.10;99.90;;;;;;5000680;28;20145;-69
2022/03/07 06:23:36;;;;;;;3.15;0.88;;;2.10;99.90;;;;;;4999705;28;20053;-64
2022/03/07 06:26:07;;;;;;;7.15;1.88;;;2.10;99.90;;;;;;5000608;28;20814;-70
2022/03/07 06:28:34;;;;;;;3.58;1.10;;;2.10;99.90;;;;;;4996686;28;20058;-71
2022/03/07 06:31:01;;;;;;;6.72;3.00;;;2.10;99.90;;;;;;4992377;28;20062;-72
2022/03/07 06:33:28;;;;;;;3.42;1.27;;;2.10;99.90;;;;;;4998072;28;20078;-67
2022/03/07 06:35:55;;;;;;;2.17;1.20;;;2.10;99.90;;;;;;4997918;28;20077;-64
2022/03/07 06:38:22;;;;;;;5.15;2.42;;;2.20;99.90;;;;;;5000349;28;20062;-67
2022/03/07 06:40:49;;;;;;;8.73;1.45;;;2.10;99.90;;;;;;4997702;28;20054;-68
2022/03/07 06:43:16;;;;;;;3.63;1.50;;;2.10;99.90;;;;;;5000631;28;20045;-67
2022/03/07 06:45:43;;;;;;;3.75;1.70;;;2.20;99.90;;;;;;4997913;28;20245;-69
2022/03/07 06:48:10;;;;;;;5.47;1.48;;;2.20;99.90;;;;;;4999703;28;20046;-67
2022/03/07 06:50:37;;;;;;;5.30;1.42;;;2.20;99.90;;;;;;4996681;28;20042;-68
2022/03/07 06:53:04;;;;;;;4.60;1.55;;;2.20;99.90;;;;;;5004653;28;20128;-68
2022/03/07 06:55:31;;;;;;;5.60;1.35;;;2.30;99.90;;;;;;4999051;28;20479;-68
2022/03/07 06:57:58;;;;;;;5.35;1.67;;;2.30;99.90;;;;;;5000680;28;20450;-73
2022/03/07 07:00:25;;;;;;;5.88;1.40;;;2.30;99.90;;;;;;4999303;28;20088;-69
2022/03/07 07:02:51;;;;;;;6.57;1.67;;;2.30;99.90;;;;;;5003843;28;20447;-71
2022/03/07 07:05:19;;;;;;;4.25;0.90;;;2.30;99.90;;;;;;5003230;28;20170;-71
2022/03/07 07:07:46;;;;;;;7.68;2.78;;;2.30;99.90;;;;;;5000568;28;20117;-71
2022/03/07 07:10:19;;;;;;;9.15;2.00;;;2.30;99.90;;;;;;5003867;28;20050;-66
2022/03/07 07:12:47;;;;;;;3.70;1.08;;;2.30;99.90;;;;;;4997551;28;20042;-65
2022/03/07 07:15:14;;;;;;;4.55;1.42;;;2.40;99.90;;;;;;5001686;28;20050;-64
2022/03/07 07:17:41;;;;;;;4.22;1.23;;;2.40;99.90;;;;;;5002415;28;20077;-66
2022/03/07 07:20:12;;;;;;;4.68;1.00;;;2.40;99.90;;;;;;5001906;28;20077;-69
2022/03/07 07:22:40;;;;;;;5.85;1.17;;;2.40;99.90;;;;;;4998339;28;20139;-67
2022/03/07 07:25:08;;;;;;;1.60;1.13;;;2.50;99.90;;;;;;4999920;28;20069;-64
2022/03/07 07:27:36;;;;;;;3.08;1.50;;;2.50;99.90;;;;;;5001980;28;20115;-70
2022/03/07 07:30:07;;;;;;;9.20;2.03;;;2.50;99.90;;;;;;4999166;28;20045;-76
2022/03/07 07:32:34;;;;;;;;;;;2.50;99.90;;;;;;4998695;28;20069;-70
2022/03/07 07:35:01;;;;;;;5.45;1.23;;;2.50;99.90;;;;;;5001996;28;20012;-63
2022/03/07 07:37:28;;;;;;;9.60;2.08;;;2.50;99.90;;;;;;4995938;28;20065;-69
2022/03/07 07:39:55;;;;;;;5.82;1.88;;;2.50;99.90;;;;;;5016001;28;20205;-65
2022/03/07 07:42:22;;;;;;;9.13;2.30;;;2.50;99.90;;;;;;5000516;28;20069;-67
2022/03/07 07:44:49;;;;;;;6.32;0.93;;;2.60;99.90;;;;;;4996869;28;20176;-67
2022/03/07 07:47:16;;;;;;;11.55;2.70;;;2.60;99.90;;;;;;5001918;28;20153;-68
2022/03/07 07:49:43;;;;;;;13.55;2.15;;;2.60;99.90;;;;;;4999179;28;20149;-68
2022/03/07 07:52:10;;;;;;;5.53;1.95;;;2.60;99.90;;;;;;5004058;28;20077;-64
2022/03/07 07:54:37;;;;;;;7.97;1.55;;;2.70;99.90;;;;;;5005016;28;20141;-70
2022/03/07 07:57:07;;;;;;;2.38;0.90;;;2.70;99.90;;;;;;5002529;28;20057;-70
2022/03/07 07:59:34;;;;;;;8.20;0.95;;;2.70;99.90;;;;;;5003294;28;20048;-67
2022/03/07 08:02:13;;;;;;;6.53;1.20;;;2.70;99.90;;;;;;5001096;28;20050;-69
2022/03/07 08:04:40;;;;;;;5.68;1.20;;;2.70;99.90;;;;;;5001319;28;20144;-65
2022/03/07 08:07:07;;;;;;;4.13;1.27;;;2.80;99.90;;;;;;5007337;28;20077;-68
2022/03/07 08:09:35;;;;;;;5.65;1.65;;;2.80;99.90;;;;;;5005575;28;20130;-71
2022/03/07 08:12:02;;;;;;;10.45;1.85;;;2.70;99.90;;;;;;5005296;28;20054;-64
2022/03/07 08:14:29;;;;;;;4.78;1.10;;;2.80;99.90;;;;;;4998334;28;20050;-74
2022/03/07 08:16:56;;;;;;;3.35;1.33;;;2.80;99.90;;;;;;5006609;28;20045;-67
2022/03/07 08:19:23;;;;;;;3.53;0.90;;;2.80;99.90;;;;;;5003658;28;20176;-64
2022/03/07 08:21:51;;;;;;;3.28;1.52;;;2.90;99.90;;;;;;5003970;28;20072;-69
2022/03/07 08:24:18;;;;;;;3.25;1.17;;;2.90;99.90;;;;;;5005221;28;20145;-70
2022/03/07 08:26:45;;;;;;;9.27;3.00;;;2.90;99.90;;;;;;5004167;28;20141;-68
2022/03/07 08:29:12;;;;;;;6.47;2.45;;;3.00;99.90;;;;;;5006794;28;20774;-65
2022/03/07 08:31:38;;;;;;;10.38;1.33;;;3.00;99.90;;;;;;5005315;28;20057;-69
2022/03/07 08:34:06;;;;;;;8.13;1.80;;;2.90;99.90;;;;;;5004352;28;20050;-73
2022/03/07 08:36:32;;;;;;;5.88;1.58;;;3.00;99.90;;;;;;5004500;28;20157;-68
2022/03/07 08:38:59;;;;;;;7.82;0.95;;;3.00;99.90;;;;;;5003569;28;20113;-68
2022/03/07 08:41:27;;;;;;;7.00;1.38;;;3.10;99.90;;;;;;5006712;28;20088;-67
2022/03/07 08:43:55;;;;;;;10.35;1.75;;;3.10;99.90;;;;;;5006780;28;20141;-69
2022/03/07 08:46:22;;;;;;;9.18;1.77;;;3.10;99.90;;;;;;5007013;28;20046;-67
2022/03/07 08:48:49;;;;;;;3.85;0.70;;;3.10;99.90;;;;;;5003013;28;20511;-67
2022/03/07 08:51:16;;;;;;;5.65;1.50;;;3.10;99.90;;;;;;5006290;28;20127;-66
2022/03/07 08:53:43;;;;;;;8.73;1.85;;;3.10;99.90;;;;;;5006800;28;20077;-72
2022/03/07 08:56:11;;;;;;;1.98;1.15;;;3.10;99.90;;;;;;5006811;28;20419;-69
2022/03/07 08:58:52;;;;;;;8.50;1.00;;;3.20;99.90;;;;;;5006433;28;20138;-66
2022/03/07 09:01:20;;;;;;;6.72;1.38;;;3.20;99.90;;;;;;5004794;28;20050;-65
2022/03/07 09:03:47;;;;;;;4.88;1.33;;;3.20;99.90;;;;;;5002548;28;20462;-68
2022/03/07 09:06:14;;;;;;;6.55;1.00;;;3.20;99.90;;;;;;4999672;28;20220;-65
2022/03/07 09:08:41;;;;;;;6.47;0.73;;;3.20;99.90;;;;;;5002334;28;20519;-67
2022/03/07 09:11:08;;;;;;;6.65;1.67;;;3.20;99.90;;;;;;5000565;28;20065;-69
2022/03/07 09:13:35;;;;;;;1.98;0.98;;;3.20;99.90;;;;;;4999046;28;20515;-65
2022/03/07 09:16:02;;;;;;;6.95;1.83;;;3.20;99.90;;;;;;4998902;28;20073;-65
2022/03/07 09:18:29;;;;;;;10.95;1.15;;;3.20;99.90;;;;;;5000578;28;20054;-71
2022/03/07 09:20:57;;;;;;;8.15;1.67;;;3.30;99.90;;;;;;5002126;28;20510;-64
2022/03/07 09:23:25;;;;;;;3.45;1.00;;;3.30;99.90;;;;;;5001918;28;20061;-73
2022/03/07 09:25:52;;;;;;;2.35;1.05;;;3.30;99.90;;;;;;4999118;28;20081;-67
2022/03/07 09:28:19;;;;;;;8.05;2.20;;;3.30;99.90;;;;;;5001239;28;20058;-66
2022/03/07 09:30:45;;;;;;;6.65;1.73;;;3.30;99.90;;;;;;4997678;28;20943;-64
2022/03/07 09:33:13;;;;;;;11.82;2.30;;;3.30;99.90;;;;;;5002465;28;20148;-65
2022/03/07 09:35:40;;;;;;;13.10;2.10;;;3.30;99.90;;;;;;4997943;28;20045;-66
2022/03/07 09:38:07;;;;;;;4.18;0.88;;;3.30;99.90;;;;;;5001435;28;20058;-64
2022/03/07 09:40:34;;;;;;;7.25;2.67;;;3.30;99.90;;;;;;4997891;28;20046;-67
2022/03/07 09:43:02;;;;;;;9.23;3.05;;;3.40;99.90;;;;;;5003820;28;20141;-66
2022/03/07 09:45:29;;;;;;;9.30;1.40;;;3.30;99.90;;;;;;4999193;28;20426;-69
2022/03/07 09:47:58;;;;;;;7.70;1.73;;;3.40;99.90;;;;;;4999714;28;20188;-68
2022/03/07 09:50:25;;;;;;;3.50;1.30;;;3.40;99.90;;;;;;4998845;28;20127;-73
2022/03/07 09:52:54;;;;;;;5.30;1.30;;;3.40;99.90;;;;;;5000125;28;20682;-68
2022/03/07 09:55:22;;;;;;;3.93;1.43;;;3.50;99.90;;;;;;4999452;28;20173;-66
2022/03/07 09:57:49;;;;;;;8.40;2.13;;;3.40;99.90;;;;;;5001773;28;20100;-70
2022/03/07 10:00:17;;;;;;;3.58;1.60;;;3.40;99.90;;;;;;4998973;28;20451;-67
2022/03/07 10:03:14;;;;;;;12.50;3.03;;;3.50;99.90;;;;;;4998813;28;20137;-68
2022/03/07 10:05:43;;;;;;;3.63;1.38;;;3.50;99.90;;;;;;4996913;28;20073;-71
2022/03/07 10:08:22;;;;;;;3.05;1.15;;;3.50;99.90;;;;;;5001576;28;20049;-65
2022/03/07 10:10:51;;;;;;;5.30;1.15;;;3.50;99.90;;;;;;4996345;28;20396;-67
2022/03/07 10:13:21;;;;;;;7.03;1.67;;;3.50;99.90;;;;;;4998843;28;20161;-66
2022/03/07 10:16:00;;;;;;;6.65;1.45;;;3.50;99.90;;;;;;4999941;28;20701;-72
2022/03/07 10:18:29;;;;;;;2.78;1.20;;;3.50;99.90;;;;;;5000008;28;20053;-68
2022/03/07 10:21:01;;;;;;;9.65;1.08;;;3.60;99.90;;;;;;4999824;28;20092;-71
2022/03/07 10:23:28;;;;;;;5.15;1.05;;;3.60;99.90;;;;;;5000175;28;20050;-67
2022/03/07 10:26:07;;;;;;;6.35;1.13;;;3.60;99.90;;;;;;4998653;28;20388;-66
2022/03/07 10:28:41;;;;;;;3.92;1.38;;;3.60;99.90;;;;;;5000199;28;20112;-68
2022/03/07 10:31:16;;;;;;;7.40;1.73;;;3.70;99.90;;;;;;5000221;28;20149;-70
2022/03/07 10:33:45;;;;;;;11.85;2.95;;;3.70;99.90;;;;;;5000355;28;20137;-65
2022/03/07 10:36:12;;;;;;;7.18;3.05;;;3.80;99.90;;;;;;4995519;28;20100;-72
2022/03/07 10:38:41;;;;;;;5.68;1.27;;;3.80;99.90;;;;;;4989552;28;20124;-69
2022/03/07 10:41:08;;;;;;;7.93;1.90;;;3.80;99.90;;;;;;5010968;28;20088;-68
2022/03/07 10:43:45;;;;;;;6.68;1.83;;;3.70;99.90;;;;;;5000078;28;20128;-67
2022/03/07 10:46:23;;;;;;;4.68;1.52;;;3.70;99.90;;;;;;4991057;28;20113;-69
2022/03/07 10:48:50;;;;;;;5.20;1.23;;;3.70;99.90;;;;;;4992337;28;20046;-66
2022/03/07 10:51:20;;;;;;;5.00;1.38;;;3.70;99.90;;;;;;5000527;28;20199;-66
2022/03/07 10:53:48;;;;;;;10.48;3.67;;;3.80;99.90;;;;;;4995404;28;20062;-66
2022/03/07 10:56:16;;;;;;;7.43;1.48;;;3.80;99.90;;;;;;4997647;28;20077;-65
2022/03/07 10:58:52;;;;;;;5.85;1.23;;;3.90;99.90;;;;;;4994514;28;20078;-65
2022/03/07 11:01:33;;;;;;;4.85;1.50;;;3.90;99.90;;;;;;4995647;28;20049;-66
2022/03/07 11:04:01;;;;;;;8.18;1.25;;;3.90;99.90;;;;;;4998159;28;20524;-65
2022/03/07 11:06:28;;;;;;;8.65;1.70;;;3.80;99.90;;;;;;4997427;28;20042;-69
2022/03/07 11:08:56;;;;;;;6.80;1.15;;;3.80;99.90;;;;;;5000390;28;20050;-72
2022/03/07 11:11:23;;;;;;;6.70;1.40;;;3.80;99.90;;;;;;5000854;28;20203;-70
2022/03/07 11:13:55;;;;;;;3.63;1.35;;;3.80;99.90;;;;;;4993396;28;20074;-66
2022/03/07 11:16:22;;;;;;;10.18;2.20;;;3.90;99.90;;;;;;4999281;28;20073;-64
2022/03/07 11:18:53;;;;;;;8.93;1.63;;;3.90;99.90;;;;;;4996975;28;20439;-72
2022/03/07 11:21:29;;;;;;;6.22;1.00;;;3.90;99.90;;;;;;4999007;28;20092;-68
2022/03/07 11:23:56;;;;;;;2.05;1.77;;;3.80;99.90;;;;;;4995646;28;20065;-70
2022/03/07 11:26:23;;;;;;;5.50;1.73;;;3.80;99.90;;;;;;4999543;28;20372;-65
2022/03/07 11:28:51;;;;;;;7.32;1.30;;;3.90;99.90;;;;;;4995842;28;20077;-66
2022/03/07 11:31:22;;;;;;;4.63;1.60;;;3.80;99.90;;;;;;5000636;28;20407;-71
2022/03/07 11:33:51;;;;;;;7.20;2.03;;;3.70;99.90;;;;;;4998312;28;20163;-69
2022/03/07 11:36:20;;;;;;;7.28;1.83;;;3.80;99.90;;;;;;4998626;28;20133;-68
2022/03/07 11:39:05;;;;;;;11.57;1.85;;;3.90;99.90;;;;;;4996072;28;20049;-74
2022/03/07 11:41:38;;;;;;;10.70;1.42;;;3.80;99.90;;;;;;4996878;28;20136;-67
2022/03/07 11:44:13;;;;;;;22.63;3.47;;;3.80;99.90;;;;;;4996561;28;20076;-72
2022/03/07 11:46:45;;;;;;;12.63;1.75;;;3.90;99.90;;;;;;4991102;28;20127;-65
2022/03/07 11:49:25;;;;;;;9.95;1.13;;;3.90;99.90;;;;;;4999084;28;20052;-68
2022/03/07 11:52:04;;;;;;;4.60;1.30;;;4.00;99.90;;;;;;4995624;28;20073;-67
2022/03/07 11:54:31;;;;;;;6.20;1.58;;;3.90;99.90;;;;;;4995534;28;20116;-69
2022/03/07 11:57:09;;;;;;;7.00;1.60;;;3.90;99.90;;;;;;4996269;28;20081;-69
2022/03/07 11:59:36;;;;;;;16.08;2.92;;;3.80;99.90;;;;;;4999912;28;20050;-67
2022/03/07 12:02:06;;;;;;;4.78;1.20;;;3.70;99.90;;;;;;4996736;28;20125;-66
2022/03/07 12:04:43;;;;;;;13.23;1.70;;;3.80;99.90;;;;;;4999821;28;20586;-68
2022/03/07 12:07:10;;;;;;;4.72;1.25;;;3.80;99.90;;;;;;4999136;28;20058;-76
2022/03/07 12:09:39;;;;;;;6.18;2.03;;;3.90;99.90;;;;;;4997978;28;20089;-65
2022/03/07 12:12:08;;;;;;;12.75;2.00;;;3.80;99.90;;;;;;4995654;28;20054;-67
2022/03/07 12:14:42;;;;;;;11.07;1.70;;;3.80;99.90;;;;;;4995903;28;20073;-70
2022/03/07 12:17:17;;;;;;;11.23;1.70;;;3.80;99.90;;;;;;4998996;28;20050;-67
2022/03/07 12:19:56;;;;;;;11.82;1.50;;;3.90;99.90;;;;;;4998412;28;20050;-71
2022/03/07 12:22:25;;;;;;;6.40;1.80;;;4.00;99.90;;;;;;5000189;28;20042;-70
2022/03/07 12:24:55;;;;;;;4.28;1.55;;;4.10;99.90;;;;;;4994247;28;20136;-68
2022/03/07 12:27:23;;;;;;;5.78;2.83;;;3.90;99.90;;;;;;4997594;28;20129;-71
2022/03/07 12:29:53;;;;;;;3.05;1.50;;;3.90;99.90;;;;;;4999999;28;20074;-70
2022/03/07 12:32:20;;;;;;;14.35;1.98;;;3.70;99.90;;;;;;4997295;28;20050;-65
2022/03/07 12:34:47;;;;;;;9.45;2.17;;;3.70;99.90;;;;;;4992701;28;20050;-68
2022/03/07 12:37:18;;;;;;;7.43;1.52;;;3.60;99.90;;;;;;4999284;28;20058;-65
2022/03/07 12:39:49;;;;;;;;;;;3.60;99.90;;;;;;5002242;28;20081;-73
2022/03/07 12:42:21;;;;;;;7.13;1.02;;;3.60;99.90;;;;;;5000874;28;19937;-69
2022/03/07 12:44:49;;;;;;;6.72;1.73;;;3.70;99.90;;;;;;4995910;28;20074;-67
2022/03/07 12:47:19;;;;;;;7.75;2.35;;;3.70;99.90;;;;;;5003591;28;20212;-68
2022/03/07 12:49:50;;;;;;;7.82;2.47;;;3.80;99.90;;;;;;4998248;28;20053;-67
2022/03/07 12:52:29;;;;;;;5.45;2.58;;;3.80;99.90;;;;;;4997863;28;20046;-70
2022/03/07 12:54:58;;;;;;;7.65;2.17;;;3.90;99.90;;;;;;4996158;28;20456;-67
2022/03/07 12:57:27;;;;;;;10.93;1.92;;;4.00;99.90;;;;;;5000551;28;20149;-68
2022/03/07 13:00:00;;;;;;;8.35;2.53;;;4.00;99.90;;;;;;5002526;28;20073;-74
2022/03/07 13:02:39;;;;;;;2.55;1.15;;;4.00;99.90;;;;;;4997505;28;20404;-70
2022/03/07 13:05:10;;;;;;;5.63;1.50;;;3.80;99.90;;;;;;4997980;28;20066;-69